sensor_id;sensor_type;location;lat;lon;timestamp;pressure;altitude;pressure_sealevel;temperature
15701;BMP180;7950;42.744;23.174;2023-07-22T00:00:09;94314.09;;;22.83
15701;BMP180;7950;42.744;23.174;2023-07-22T00:02:42;94313.06;;;22.75
15701;BMP180;7950;42.744;23.174;2023-07-22T00:05:11;94320.94;;;22.72
15701;BMP180;7950;42.744;23.174;2023-07-22T00:07:40;94314.03;;;22.71
15701;BMP180;7950;42.744;23.174;2023-07-22T00:10:10;94320.44;;;22.58
15701;BMP180;7950;42.744;23.174;2023-07-22T00:12:39;94322.91;;;22.63
15701;BMP180;7950;42.744;23.174;2023-07-22T00:15:10;94330.81;;;22.59
15701;BMP180;7950;42.744;23.174;2023-07-22T00:17:40;94328.66;;;22.53
15701;BMP180;7950;42.744;23.174;2023-07-22T00:20:10;94322.97;;;22.54
15701;BMP180;7950;42.744;23.174;2023-07-22T00:22:39;94323.66;;;22.43
15701;BMP180;7950;42.744;23.174;2023-07-22T00:25:10;94321.09;;;22.55
15701;BMP180;7950;42.744;23.174;2023-07-22T00:27:41;94318.38;;;22.34
15701;BMP180;7950;42.744;23.174;2023-07-22T00:30:12;94319.53;;;22.25
15701;BMP180;7950;42.744;23.174;2023-07-22T00:32:41;94323.06;;;22.17
15701;BMP180;7950;42.744;23.174;2023-07-22T00:35:10;94333.13;;;22.11
15701;BMP180;7950;42.744;23.174;2023-07-22T00:37:39;94336.63;;;22.03
15701;BMP180;7950;42.744;23.174;2023-07-22T00:40:09;94341.84;;;22.00
15701;BMP180;7950;42.744;23.174;2023-07-22T00:42:40;94350.34;;;22.02
15701;BMP180;7950;42.744;23.174;2023-07-22T00:45:08;94360.53;;;22.00
15701;BMP180;7950;42.744;23.174;2023-07-22T00:47:39;94355.38;;;21.95
15701;BMP180;7950;42.744;23.174;2023-07-22T00:50:08;94346.94;;;21.93
15701;BMP180;7950;42.744;23.174;2023-07-22T00:52:38;94343.13;;;21.94
15701;BMP180;7950;42.744;23.174;2023-07-22T00:55:07;94342.59;;;21.80
15701;BMP180;7950;42.744;23.174;2023-07-22T00:57:36;94338.81;;;21.81
15701;BMP180;7950;42.744;23.174;2023-07-22T01:00:07;94327.47;;;21.84
15701;BMP180;7950;42.744;23.174;2023-07-22T01:02:41;94323.53;;;21.81
15701;BMP180;7950;42.744;23.174;2023-07-22T01:05:11;94330.66;;;21.77
15701;BMP180;7950;42.744;23.174;2023-07-22T01:07:41;94333.94;;;21.66
15701;BMP180;7950;42.744;23.174;2023-07-22T01:10:12;94343.72;;;21.70
15701;BMP180;7950;42.744;23.174;2023-07-22T01:12:44;94339.16;;;21.71
15701;BMP180;7950;42.744;23.174;2023-07-22T01:15:13;94335.06;;;21.73
15701;BMP180;7950;42.744;23.174;2023-07-22T01:17:44;94330.47;;;21.82
15701;BMP180;7950;42.744;23.174;2023-07-22T01:20:14;94325.63;;;21.76
15701;BMP180;7950;42.744;23.174;2023-07-22T01:22:51;94322.19;;;21.67
15701;BMP180;7950;42.744;23.174;2023-07-22T01:25:20;94310.28;;;21.56
15701;BMP180;7950;42.744;23.174;2023-07-22T01:27:51;94318.34;;;21.39
15701;BMP180;7950;42.744;23.174;2023-07-22T01:30:20;94324.22;;;21.24
15701;BMP180;7950;42.744;23.174;2023-07-22T01:32:48;94323.31;;;21.03
15701;BMP180;7950;42.744;23.174;2023-07-22T01:35:18;94321.88;;;21.05
15701;BMP180;7950;42.744;23.174;2023-07-22T01:37:49;94315.78;;;21.05
15701;BMP180;7950;42.744;23.174;2023-07-22T01:40:18;94310.28;;;21.01
15701;BMP180;7950;42.744;23.174;2023-07-22T01:42:47;94305.56;;;21.07
15701;BMP180;7950;42.744;23.174;2023-07-22T01:45:15;94313.56;;;20.90
15701;BMP180;7950;42.744;23.174;2023-07-22T01:47:44;94316.72;;;20.75
15701;BMP180;7950;42.744;23.174;2023-07-22T01:50:13;94304.66;;;20.60
15701;BMP180;7950;42.744;23.174;2023-07-22T01:52:41;94323.63;;;20.59
15701;BMP180;7950;42.744;23.174;2023-07-22T01:55:11;94306.88;;;20.58
15701;BMP180;7950;42.744;23.174;2023-07-22T01:57:41;94315.47;;;20.55
15701;BMP180;7950;42.744;23.174;2023-07-22T02:00:11;94308.91;;;20.53
15701;BMP180;7950;42.744;23.174;2023-07-22T02:02:42;94315.63;;;20.59
15701;BMP180;7950;42.744;23.174;2023-07-22T02:05:11;94313.59;;;20.47
15701;BMP180;7950;42.744;23.174;2023-07-22T02:07:40;94309.03;;;20.56
15701;BMP180;7950;42.744;23.174;2023-07-22T02:10:12;94304.50;;;20.48
15701;BMP180;7950;42.744;23.174;2023-07-22T02:12:41;94304.66;;;20.43
15701;BMP180;7950;42.744;23.174;2023-07-22T02:15:10;94305.59;;;20.47
15701;BMP180;7950;42.744;23.174;2023-07-22T02:17:39;94307.16;;;20.48
15701;BMP180;7950;42.744;23.174;2023-07-22T02:20:08;94310.59;;;20.57
15701;BMP180;7950;42.744;23.174;2023-07-22T02:22:37;94310.00;;;20.60
15701;BMP180;7950;42.744;23.174;2023-07-22T02:25:07;94314.69;;;20.63
15701;BMP180;7950;42.744;23.174;2023-07-22T02:27:39;94314.06;;;20.58
15701;BMP180;7950;42.744;23.174;2023-07-22T02:30:09;94319.06;;;20.51
15701;BMP180;7950;42.744;23.174;2023-07-22T02:32:39;94307.31;;;20.43
15701;BMP180;7950;42.744;23.174;2023-07-22T02:35:09;94310.47;;;20.45
15701;BMP180;7950;42.744;23.174;2023-07-22T02:37:39;94316.38;;;20.34
15701;BMP180;7950;42.744;23.174;2023-07-22T02:40:08;94326.09;;;20.21
15701;BMP180;7950;42.744;23.174;2023-07-22T02:42:40;94318.75;;;20.27
15701;BMP180;7950;42.744;23.174;2023-07-22T02:45:10;94317.66;;;20.28
15701;BMP180;7950;42.744;23.174;2023-07-22T02:47:39;94319.84;;;20.26
15701;BMP180;7950;42.744;23.174;2023-07-22T02:50:09;94332.69;;;20.15
15701;BMP180;7950;42.744;23.174;2023-07-22T02:52:38;94331.28;;;20.18
15701;BMP180;7950;42.744;23.174;2023-07-22T02:55:09;94332.03;;;20.10
15701;BMP180;7950;42.744;23.174;2023-07-22T02:57:41;94334.69;;;20.10
15701;BMP180;7950;42.744;23.174;2023-07-22T03:00:10;94344.56;;;20.09
15701;BMP180;7950;42.744;23.174;2023-07-22T03:02:40;94337.19;;;20.06
15701;BMP180;7950;42.744;23.174;2023-07-22T03:05:09;94330.09;;;20.02
15701;BMP180;7950;42.744;23.174;2023-07-22T03:07:39;94332.47;;;20.03
15701;BMP180;7950;42.744;23.174;2023-07-22T03:10:09;94336.81;;;19.91
15701;BMP180;7950;42.744;23.174;2023-07-22T03:12:37;94334.81;;;20.05
15701;BMP180;7950;42.744;23.174;2023-07-22T03:15:09;94330.09;;;19.93
15701;BMP180;7950;42.744;23.174;2023-07-22T03:17:40;94332.09;;;19.88
15701;BMP180;7950;42.744;23.174;2023-07-22T03:20:11;94337.59;;;19.83
15701;BMP180;7950;42.744;23.174;2023-07-22T03:22:42;94345.56;;;19.83
15701;BMP180;7950;42.744;23.174;2023-07-22T03:25:12;94347.03;;;19.97
15701;BMP180;7950;42.744;23.174;2023-07-22T03:27:41;94353.25;;;19.93
15701;BMP180;7950;42.744;23.174;2023-07-22T03:30:13;94357.38;;;19.99
15701;BMP180;7950;42.744;23.174;2023-07-22T03:32:44;94348.91;;;19.97
15701;BMP180;7950;42.744;23.174;2023-07-22T03:35:15;94352.16;;;19.94
15701;BMP180;7950;42.744;23.174;2023-07-22T03:37:45;94352.00;;;19.82
15701;BMP180;7950;42.744;23.174;2023-07-22T03:40:14;94357.91;;;19.79
15701;BMP180;7950;42.744;23.174;2023-07-22T03:42:47;94352.50;;;19.92
15701;BMP180;7950;42.744;23.174;2023-07-22T03:45:18;94351.50;;;19.80
15701;BMP180;7950;42.744;23.174;2023-07-22T03:47:51;94362.94;;;19.80
15701;BMP180;7950;42.744;23.174;2023-07-22T03:50:21;94371.69;;;19.81
15701;BMP180;7950;42.744;23.174;2023-07-22T03:52:50;94370.47;;;19.87
15701;BMP180;7950;42.744;23.174;2023-07-22T03:55:19;94370.34;;;20.00
15701;BMP180;7950;42.744;23.174;2023-07-22T03:57:48;94374.50;;;20.15
15701;BMP180;7950;42.744;23.174;2023-07-22T04:00:19;94377.34;;;20.27
15701;BMP180;7950;42.744;23.174;2023-07-22T04:02:48;94392.25;;;20.28
15701;BMP180;7950;42.744;23.174;2023-07-22T04:05:17;94381.28;;;20.38
15701;BMP180;7950;42.744;23.174;2023-07-22T04:07:46;94385.38;;;20.52
15701;BMP180;7950;42.744;23.174;2023-07-22T04:10:14;94387.75;;;20.54
15701;BMP180;7950;42.744;23.174;2023-07-22T04:12:43;94381.94;;;20.69
15701;BMP180;7950;42.744;23.174;2023-07-22T04:15:12;94375.69;;;20.73
15701;BMP180;7950;42.744;23.174;2023-07-22T04:17:44;94376.00;;;20.80
15701;BMP180;7950;42.744;23.174;2023-07-22T04:20:14;94383.25;;;20.97
15701;BMP180;7950;42.744;23.174;2023-07-22T04:22:43;94379.63;;;21.10
15701;BMP180;7950;42.744;23.174;2023-07-22T04:25:12;94388.69;;;21.26
15701;BMP180;7950;42.744;23.174;2023-07-22T04:27:41;94394.78;;;21.35
15701;BMP180;7950;42.744;23.174;2023-07-22T04:30:11;94383.00;;;21.44
15701;BMP180;7950;42.744;23.174;2023-07-22T04:32:39;94394.00;;;21.51
15701;BMP180;7950;42.744;23.174;2023-07-22T04:35:10;94400.09;;;21.60
15701;BMP180;7950;42.744;23.174;2023-07-22T04:37:39;94385.63;;;21.70
15701;BMP180;7950;42.744;23.174;2023-07-22T04:40:10;94394.56;;;21.82
15701;BMP180;7950;42.744;23.174;2023-07-22T04:42:43;94396.06;;;22.00
15701;BMP180;7950;42.744;23.174;2023-07-22T04:45:13;94394.72;;;22.15
15701;BMP180;7950;42.744;23.174;2023-07-22T04:47:42;94400.16;;;22.27
15701;BMP180;7950;42.744;23.174;2023-07-22T04:50:18;94403.84;;;22.43
15701;BMP180;7950;42.744;23.174;2023-07-22T04:52:49;94403.31;;;22.58
15701;BMP180;7950;42.744;23.174;2023-07-22T04:55:19;94409.66;;;22.74
15701;BMP180;7950;42.744;23.174;2023-07-22T04:57:48;94410.50;;;22.86
15701;BMP180;7950;42.744;23.174;2023-07-22T05:00:18;94418.63;;;22.98
15701;BMP180;7950;42.744;23.174;2023-07-22T05:02:47;94421.00;;;23.12
15701;BMP180;7950;42.744;23.174;2023-07-22T05:05:18;94418.69;;;23.31
15701;BMP180;7950;42.744;23.174;2023-07-22T05:07:46;94413.50;;;23.47
15701;BMP180;7950;42.744;23.174;2023-07-22T05:10:16;94412.97;;;23.65
15701;BMP180;7950;42.744;23.174;2023-07-22T05:12:46;94410.44;;;23.81
15701;BMP180;7950;42.744;23.174;2023-07-22T05:15:15;94407.38;;;24.03
15701;BMP180;7950;42.744;23.174;2023-07-22T05:17:44;94410.97;;;24.19
15701;BMP180;7950;42.744;23.174;2023-07-22T05:20:14;94415.34;;;24.35
15701;BMP180;7950;42.744;23.174;2023-07-22T05:22:44;94404.84;;;24.54
15701;BMP180;7950;42.744;23.174;2023-07-22T05:25:13;94411.88;;;24.71
15701;BMP180;7950;42.744;23.174;2023-07-22T05:27:42;94413.34;;;24.80
15701;BMP180;7950;42.744;23.174;2023-07-22T05:30:11;94407.75;;;24.85
15701;BMP180;7950;42.744;23.174;2023-07-22T05:32:59;94420.00;;;24.98
15701;BMP180;7950;42.744;23.174;2023-07-22T05:35:28;94428.00;;;25.10
15701;BMP180;7950;42.744;23.174;2023-07-22T05:37:58;94421.31;;;25.16
15701;BMP180;7950;42.744;23.174;2023-07-22T05:40:27;94418.13;;;25.26
15701;BMP180;7950;42.744;23.174;2023-07-22T05:42:56;94423.25;;;25.43
15701;BMP180;7950;42.744;23.174;2023-07-22T05:45:25;94418.63;;;25.44
15701;BMP180;7950;42.744;23.174;2023-07-22T05:47:54;94417.41;;;25.41
15701;BMP180;7950;42.744;23.174;2023-07-22T05:50:23;94404.44;;;25.43
15701;BMP180;7950;42.744;23.174;2023-07-22T05:52:52;94418.09;;;25.66
15701;BMP180;7950;42.744;23.174;2023-07-22T05:55:23;94411.78;;;25.74
15701;BMP180;7950;42.744;23.174;2023-07-22T05:57:51;94432.88;;;25.87
15701;BMP180;7950;42.744;23.174;2023-07-22T06:00:20;94439.06;;;26.03
15701;BMP180;7950;42.744;23.174;2023-07-22T06:02:49;94445.94;;;26.16
15701;BMP180;7950;42.744;23.174;2023-07-22T06:05:18;94452.53;;;26.34
15701;BMP180;7950;42.744;23.174;2023-07-22T06:07:47;94441.34;;;26.48
15701;BMP180;7950;42.744;23.174;2023-07-22T06:10:16;94451.69;;;26.61
15701;BMP180;7950;42.744;23.174;2023-07-22T06:12:46;94445.44;;;26.73
15701;BMP180;7950;42.744;23.174;2023-07-22T06:15:15;94445.22;;;26.81
15701;BMP180;7950;42.744;23.174;2023-07-22T06:17:44;94455.72;;;26.86
15701;BMP180;7950;42.744;23.174;2023-07-22T06:20:13;94449.09;;;26.99
15701;BMP180;7950;42.744;23.174;2023-07-22T06:22:41;94458.19;;;27.10
15701;BMP180;7950;42.744;23.174;2023-07-22T06:25:10;94451.81;;;27.18
15701;BMP180;7950;42.744;23.174;2023-07-22T06:27:39;94455.22;;;27.31
15701;BMP180;7950;42.744;23.174;2023-07-22T06:30:10;94460.47;;;27.43
15701;BMP180;7950;42.744;23.174;2023-07-22T06:32:39;94456.47;;;27.56
15701;BMP180;7950;42.744;23.174;2023-07-22T06:35:09;94460.47;;;27.62
15701;BMP180;7950;42.744;23.174;2023-07-22T06:37:37;94462.22;;;27.73
15701;BMP180;7950;42.744;23.174;2023-07-22T06:40:07;94455.88;;;27.81
15701;BMP180;7950;42.744;23.174;2023-07-22T06:42:36;94454.72;;;27.82
15701;BMP180;7950;42.744;23.174;2023-07-22T06:45:06;94451.44;;;27.92
15701;BMP180;7950;42.744;23.174;2023-07-22T06:47:36;94456.44;;;27.90
15701;BMP180;7950;42.744;23.174;2023-07-22T06:50:06;94446.47;;;27.75
15701;BMP180;7950;42.744;23.174;2023-07-22T06:52:35;94441.88;;;27.76
15701;BMP180;7950;42.744;23.174;2023-07-22T06:55:04;94443.25;;;27.85
15701;BMP180;7950;42.744;23.174;2023-07-22T06:57:33;94440.22;;;27.71
15701;BMP180;7950;42.744;23.174;2023-07-22T07:00:03;94442.84;;;27.87
15701;BMP180;7950;42.744;23.174;2023-07-22T07:02:32;94440.31;;;27.94
15701;BMP180;7950;42.744;23.174;2023-07-22T07:05:03;94441.66;;;28.03
15701;BMP180;7950;42.744;23.174;2023-07-22T07:07:32;94434.63;;;28.21
15701;BMP180;7950;42.744;23.174;2023-07-22T07:10:01;94434.81;;;28.32
15701;BMP180;7950;42.744;23.174;2023-07-22T07:12:30;94441.91;;;28.40
15701;BMP180;7950;42.744;23.174;2023-07-22T07:14:59;94443.13;;;28.42
15701;BMP180;7950;42.744;23.174;2023-07-22T07:17:28;94442.38;;;28.45
15701;BMP180;7950;42.744;23.174;2023-07-22T07:19:57;94429.84;;;28.56
15701;BMP180;7950;42.744;23.174;2023-07-22T07:22:27;94435.66;;;28.58
15701;BMP180;7950;42.744;23.174;2023-07-22T07:24:56;94436.25;;;28.71
15701;BMP180;7950;42.744;23.174;2023-07-22T07:27:24;94427.53;;;28.81
15701;BMP180;7950;42.744;23.174;2023-07-22T07:29:53;94429.28;;;28.96
15701;BMP180;7950;42.744;23.174;2023-07-22T07:32:22;94435.31;;;28.86
15701;BMP180;7950;42.744;23.174;2023-07-22T07:34:51;94409.63;;;28.95
15701;BMP180;7950;42.744;23.174;2023-07-22T07:37:22;94416.66;;;29.03
15701;BMP180;7950;42.744;23.174;2023-07-22T07:39:52;94410.34;;;29.18
15701;BMP180;7950;42.744;23.174;2023-07-22T07:42:21;94412.88;;;29.38
15701;BMP180;7950;42.744;23.174;2023-07-22T07:44:50;94405.00;;;29.25
15701;BMP180;7950;42.744;23.174;2023-07-22T07:47:18;94414.50;;;29.42
15701;BMP180;7950;42.744;23.174;2023-07-22T07:49:47;94410.69;;;29.47
15701;BMP180;7950;42.744;23.174;2023-07-22T07:52:16;94407.44;;;29.64
15701;BMP180;7950;42.744;23.174;2023-07-22T07:54:45;94411.69;;;29.65
15701;BMP180;7950;42.744;23.174;2023-07-22T07:57:15;94410.97;;;29.68
15701;BMP180;7950;42.744;23.174;2023-07-22T07:59:43;94400.28;;;29.82
15701;BMP180;7950;42.744;23.174;2023-07-22T08:02:12;94414.06;;;29.70
15701;BMP180;7950;42.744;23.174;2023-07-22T08:04:41;94401.03;;;29.79
15701;BMP180;7950;42.744;23.174;2023-07-22T08:07:10;94397.31;;;29.94
15701;BMP180;7950;42.744;23.174;2023-07-22T08:09:39;94404.53;;;30.16
15701;BMP180;7950;42.744;23.174;2023-07-22T08:12:08;94412.41;;;30.35
15701;BMP180;7950;42.744;23.174;2023-07-22T08:14:39;94408.28;;;30.51
15701;BMP180;7950;42.744;23.174;2023-07-22T08:17:08;94411.19;;;30.69
15701;BMP180;7950;42.744;23.174;2023-07-22T08:19:36;94408.13;;;30.74
15701;BMP180;7950;42.744;23.174;2023-07-22T08:22:05;94407.38;;;30.80
15701;BMP180;7950;42.744;23.174;2023-07-22T08:24:34;94390.78;;;30.89
15701;BMP180;7950;42.744;23.174;2023-07-22T08:27:04;94392.75;;;30.95
15701;BMP180;7950;42.744;23.174;2023-07-22T08:29:32;94391.28;;;31.01
15701;BMP180;7950;42.744;23.174;2023-07-22T08:32:04;94381.25;;;31.12
15701;BMP180;7950;42.744;23.174;2023-07-22T08:34:32;94367.75;;;31.19
15701;BMP180;7950;42.744;23.174;2023-07-22T08:37:01;94368.88;;;31.15
15701;BMP180;7950;42.744;23.174;2023-07-22T08:39:31;94366.25;;;31.22
15701;BMP180;7950;42.744;23.174;2023-07-22T08:42:04;94367.41;;;31.28
15701;BMP180;7950;42.744;23.174;2023-07-22T08:44:42;94353.53;;;31.40
15701;BMP180;7950;42.744;23.174;2023-07-22T08:47:16;94353.19;;;31.52
15701;BMP180;7950;42.744;23.174;2023-07-22T08:49:57;94356.25;;;31.47
15701;BMP180;7950;42.744;23.174;2023-07-22T08:52:26;94348.91;;;31.51
15701;BMP180;7950;42.744;23.174;2023-07-22T08:54:55;94350.09;;;31.60
15701;BMP180;7950;42.744;23.174;2023-07-22T08:57:26;94348.16;;;31.54
15701;BMP180;7950;42.744;23.174;2023-07-22T08:59:57;94349.72;;;31.69
15701;BMP180;7950;42.744;23.174;2023-07-22T09:02:29;94345.16;;;31.76
15701;BMP180;7950;42.744;23.174;2023-07-22T09:04:58;94338.94;;;31.90
15701;BMP180;7950;42.744;23.174;2023-07-22T09:07:28;94348.28;;;31.96
15701;BMP180;7950;42.744;23.174;2023-07-22T09:09:58;94344.00;;;32.02
15701;BMP180;7950;42.744;23.174;2023-07-22T09:12:27;94345.53;;;31.92
15701;BMP180;7950;42.744;23.174;2023-07-22T09:14:57;94346.34;;;32.07
15701;BMP180;7950;42.744;23.174;2023-07-22T09:17:28;94332.38;;;32.22
15701;BMP180;7950;42.744;23.174;2023-07-22T09:19:57;94335.47;;;32.21
15701;BMP180;7950;42.744;23.174;2023-07-22T09:22:26;94340.53;;;32.26
15701;BMP180;7950;42.744;23.174;2023-07-22T09:25:13;94327.38;;;32.49
15701;BMP180;7950;42.744;23.174;2023-07-22T09:27:43;94334.31;;;32.67
15701;BMP180;7950;42.744;23.174;2023-07-22T09:30:26;94327.72;;;32.82
15701;BMP180;7950;42.744;23.174;2023-07-22T09:32:59;94323.78;;;32.97
15701;BMP180;7950;42.744;23.174;2023-07-22T09:35:31;94310.16;;;33.11
15701;BMP180;7950;42.744;23.174;2023-07-22T09:38:00;94322.91;;;33.25
15701;BMP180;7950;42.744;23.174;2023-07-22T09:40:29;94319.75;;;33.37
15701;BMP180;7950;42.744;23.174;2023-07-22T09:43:02;94308.91;;;33.30
15701;BMP180;7950;42.744;23.174;2023-07-22T09:45:31;94316.31;;;33.33
15701;BMP180;7950;42.744;23.174;2023-07-22T09:48:01;94310.47;;;33.31
15701;BMP180;7950;42.744;23.174;2023-07-22T09:50:30;94319.38;;;33.42
15701;BMP180;7950;42.744;23.174;2023-07-22T09:53:00;94305.28;;;33.61
15701;BMP180;7950;42.744;23.174;2023-07-22T09:55:32;94300.16;;;33.70
15701;BMP180;7950;42.744;23.174;2023-07-22T09:58:03;94303.22;;;33.82
15701;BMP180;7950;42.744;23.174;2023-07-22T10:00:34;94297.03;;;33.82
15701;BMP180;7950;42.744;23.174;2023-07-22T10:03:10;94299.34;;;33.83
15701;BMP180;7950;42.744;23.174;2023-07-22T10:05:45;94296.59;;;33.80
15701;BMP180;7950;42.744;23.174;2023-07-22T10:08:19;94305.13;;;33.89
15701;BMP180;7950;42.744;23.174;2023-07-22T10:10:55;94299.59;;;33.99
15701;BMP180;7950;42.744;23.174;2023-07-22T10:13:27;94305.69;;;34.17
15701;BMP180;7950;42.744;23.174;2023-07-22T10:15:56;94302.50;;;34.26
15701;BMP180;7950;42.744;23.174;2023-07-22T10:18:27;94285.50;;;34.11
15701;BMP180;7950;42.744;23.174;2023-07-22T10:20:57;94286.94;;;34.26
15701;BMP180;7950;42.744;23.174;2023-07-22T10:23:26;94273.66;;;34.35
15701;BMP180;7950;42.744;23.174;2023-07-22T10:25:58;94279.75;;;34.50
15701;BMP180;7950;42.744;23.174;2023-07-22T10:28:28;94279.75;;;34.50
15701;BMP180;7950;42.744;23.174;2023-07-22T10:30:57;94278.25;;;34.42
15701;BMP180;7950;42.744;23.174;2023-07-22T10:33:28;94282.22;;;34.34
15701;BMP180;7950;42.744;23.174;2023-07-22T10:36:06;94279.97;;;34.22
15701;BMP180;7950;42.744;23.174;2023-07-22T10:38:35;94283.00;;;34.34
15701;BMP180;7950;42.744;23.174;2023-07-22T10:41:12;94266.66;;;34.34
15701;BMP180;7950;42.744;23.174;2023-07-22T10:43:41;94264.38;;;34.26
15701;BMP180;7950;42.744;23.174;2023-07-22T10:46:11;94268.19;;;34.39
15701;BMP180;7950;42.744;23.174;2023-07-22T10:48:42;94256.16;;;34.36
15701;BMP180;7950;42.744;23.174;2023-07-22T10:51:12;94265.44;;;34.42
15701;BMP180;7950;42.744;23.174;2023-07-22T10:53:44;94251.25;;;34.58
15701;BMP180;7950;42.744;23.174;2023-07-22T10:56:17;94260.00;;;34.76
15701;BMP180;7950;42.744;23.174;2023-07-22T10:58:59;94263.19;;;34.71
15701;BMP180;7950;42.744;23.174;2023-07-22T11:01:36;94249.63;;;34.64
15701;BMP180;7950;42.744;23.174;2023-07-22T11:07:31;94247.63;;;34.68
15701;BMP180;7950;42.744;23.174;2023-07-22T11:10:14;94253.31;;;34.47
15701;BMP180;7950;42.744;23.174;2023-07-22T11:12:44;94251.69;;;34.53
15701;BMP180;7950;42.744;23.174;2023-07-22T11:15:16;94247.66;;;34.31
15701;BMP180;7950;42.744;23.174;2023-07-22T11:17:45;94253.50;;;34.26
15701;BMP180;7950;42.744;23.174;2023-07-22T11:20:15;94256.09;;;33.96
15701;BMP180;7950;42.744;23.174;2023-07-22T11:22:44;94250.38;;;33.76
15701;BMP180;7950;42.744;23.174;2023-07-22T11:25:17;94238.22;;;33.95
15701;BMP180;7950;42.744;23.174;2023-07-22T11:27:46;94245.94;;;34.00
15701;BMP180;7950;42.744;23.174;2023-07-22T11:30:15;94243.88;;;34.14
15701;BMP180;7950;42.744;23.174;2023-07-22T11:32:43;94247.19;;;34.36
15701;BMP180;7950;42.744;23.174;2023-07-22T11:35:17;94242.84;;;34.42
15701;BMP180;7950;42.744;23.174;2023-07-22T11:37:46;94242.06;;;34.45
15701;BMP180;7950;42.744;23.174;2023-07-22T11:40:15;94243.94;;;34.51
15701;BMP180;7950;42.744;23.174;2023-07-22T11:42:45;94236.09;;;34.57
15701;BMP180;7950;42.744;23.174;2023-07-22T11:45:14;94231.34;;;34.64
15701;BMP180;7950;42.744;23.174;2023-07-22T11:47:43;94227.34;;;34.72
15701;BMP180;7950;42.744;23.174;2023-07-22T11:50:12;94235.16;;;34.70
15701;BMP180;7950;42.744;23.174;2023-07-22T11:52:42;94223.50;;;34.70
15701;BMP180;7950;42.744;23.174;2023-07-22T11:55:11;94225.88;;;34.64
15701;BMP180;7950;42.744;23.174;2023-07-22T11:57:52;94216.56;;;34.62
15701;BMP180;7950;42.744;23.174;2023-07-22T12:00:21;94218.47;;;34.65
15701;BMP180;7950;42.744;23.174;2023-07-22T12:02:50;94210.34;;;34.61
15701;BMP180;7950;42.744;23.174;2023-07-22T12:05:24;94217.13;;;34.83
15701;BMP180;7950;42.744;23.174;2023-07-22T12:07:53;94198.44;;;35.12
15701;BMP180;7950;42.744;23.174;2023-07-22T12:10:24;94210.28;;;35.32
15701;BMP180;7950;42.744;23.174;2023-07-22T12:12:53;94207.97;;;35.57
15701;BMP180;7950;42.744;23.174;2023-07-22T12:15:22;94208.63;;;35.38
15701;BMP180;7950;42.744;23.174;2023-07-22T12:17:53;94211.16;;;35.52
15701;BMP180;7950;42.744;23.174;2023-07-22T12:20:24;94202.75;;;35.66
15701;BMP180;7950;42.744;23.174;2023-07-22T12:22:56;94193.78;;;35.92
15701;BMP180;7950;42.744;23.174;2023-07-22T12:25:26;94190.56;;;35.97
15701;BMP180;7950;42.744;23.174;2023-07-22T12:27:54;94189.97;;;36.09
15701;BMP180;7950;42.744;23.174;2023-07-22T12:30:23;94194.13;;;36.17
15701;BMP180;7950;42.744;23.174;2023-07-22T12:32:54;94185.38;;;36.29
15701;BMP180;7950;42.744;23.174;2023-07-22T12:35:23;94173.28;;;36.50
15701;BMP180;7950;42.744;23.174;2023-07-22T12:37:51;94177.41;;;36.58
15701;BMP180;7950;42.744;23.174;2023-07-22T12:40:21;94161.84;;;36.35
15701;BMP180;7950;42.744;23.174;2023-07-22T12:42:50;94175.34;;;36.23
15701;BMP180;7950;42.744;23.174;2023-07-22T12:45:19;94175.63;;;36.05
15701;BMP180;7950;42.744;23.174;2023-07-22T12:47:47;94171.25;;;36.11
15701;BMP180;7950;42.744;23.174;2023-07-22T12:50:16;94177.72;;;36.21
15701;BMP180;7950;42.744;23.174;2023-07-22T12:52:45;94171.47;;;36.20
15701;BMP180;7950;42.744;23.174;2023-07-22T12:55:13;94169.41;;;36.05
15701;BMP180;7950;42.744;23.174;2023-07-22T12:57:43;94166.63;;;35.85
15701;BMP180;7950;42.744;23.174;2023-07-22T13:00:13;94165.19;;;35.77
15701;BMP180;7950;42.744;23.174;2023-07-22T13:02:42;94165.31;;;35.67
15701;BMP180;7950;42.744;23.174;2023-07-22T13:05:11;94170.16;;;35.56
15701;BMP180;7950;42.744;23.174;2023-07-22T13:07:39;94165.63;;;35.49
15701;BMP180;7950;42.744;23.174;2023-07-22T13:10:10;94157.22;;;35.63
15701;BMP180;7950;42.744;23.174;2023-07-22T13:12:43;94161.06;;;35.39
15701;BMP180;7950;42.744;23.174;2023-07-22T13:15:12;94158.88;;;35.31
15701;BMP180;7950;42.744;23.174;2023-07-22T13:17:40;94164.22;;;35.38
15701;BMP180;7950;42.744;23.174;2023-07-22T13:20:11;94148.28;;;35.36
15701;BMP180;7950;42.744;23.174;2023-07-22T13:22:39;94153.50;;;35.24
15701;BMP180;7950;42.744;23.174;2023-07-22T13:25:08;94154.34;;;35.17
15701;BMP180;7950;42.744;23.174;2023-07-22T13:27:37;94146.19;;;35.17
15701;BMP180;7950;42.744;23.174;2023-07-22T13:30:09;94146.19;;;35.17
15701;BMP180;7950;42.744;23.174;2023-07-22T13:32:38;94132.53;;;35.17
15701;BMP180;7950;42.744;23.174;2023-07-22T13:35:07;94141.50;;;35.18
15701;BMP180;7950;42.744;23.174;2023-07-22T13:37:37;94132.53;;;35.17
15701;BMP180;7950;42.744;23.174;2023-07-22T13:40:07;94135.59;;;35.23
15701;BMP180;7950;42.744;23.174;2023-07-22T13:42:38;94129.69;;;35.28
15701;BMP180;7950;42.744;23.174;2023-07-22T13:45:09;94116.50;;;35.23
15701;BMP180;7950;42.744;23.174;2023-07-22T13:47:38;94119.03;;;35.10
15701;BMP180;7950;42.744;23.174;2023-07-22T13:50:07;94117.66;;;34.99
15701;BMP180;7950;42.744;23.174;2023-07-22T13:52:35;94107.69;;;34.85
15701;BMP180;7950;42.744;23.174;2023-07-22T13:55:05;94116.44;;;34.69
15701;BMP180;7950;42.744;23.174;2023-07-22T13:57:34;94108.84;;;34.54
15701;BMP180;7950;42.744;23.174;2023-07-22T14:00:03;94115.63;;;34.42
15701;BMP180;7950;42.744;23.174;2023-07-22T14:02:38;94105.94;;;34.38
15701;BMP180;7950;42.744;23.174;2023-07-22T14:05:08;94109.78;;;34.44
15701;BMP180;7950;42.744;23.174;2023-07-22T14:07:38;94100.75;;;34.47
15701;BMP180;7950;42.744;23.174;2023-07-22T14:10:08;94099.28;;;34.72
15701;BMP180;7950;42.744;23.174;2023-07-22T14:12:37;94104.16;;;34.88
15701;BMP180;7950;42.744;23.174;2023-07-22T14:15:07;94105.75;;;34.86
15701;BMP180;7950;42.744;23.174;2023-07-22T14:17:38;94118.88;;;34.94
15701;BMP180;7950;42.744;23.174;2023-07-22T14:20:08;94110.22;;;34.99
15701;BMP180;7950;42.744;23.174;2023-07-22T14:22:38;94110.16;;;35.03
15701;BMP180;7950;42.744;23.174;2023-07-22T14:25:08;94122.09;;;35.12
15701;BMP180;7950;42.744;23.174;2023-07-22T14:27:38;94118.03;;;34.97